sensor_id;sensor_type;location;lat;lon;timestamp;temperature;humidity
7163;DHT22;3623;47.098;15.446;2023-04-06T13:39:25;16.00;59.30
7163;DHT22;3623;47.098;15.446;2023-04-06T13:41:53;15.50;57.80
7163;DHT22;3623;47.098;15.446;2023-04-06T13:44:21;15.10;58.30
7163;DHT22;3623;47.098;15.446;2023-04-06T13:46:48;14.00;56.60
7163;DHT22;3623;47.098;15.446;2023-04-06T13:49:16;14.40;59.10
7163;DHT22;3623;47.098;15.446;2023-04-06T13:51:44;14.30;59.30
7163;DHT22;3623;47.098;15.446;2023-04-06T13:54:11;14.60;57.90
7163;DHT22;3623;47.098;15.446;2023-04-06T13:56:38;14.50;57.10
7163;DHT22;3623;47.098;15.446;2023-04-06T13:59:05;14.20;58.50
7163;DHT22;3623;47.098;15.446;2023-04-06T14:01:32;14.60;60.40
7163;DHT22;3623;47.098;15.446;2023-04-06T14:03:59;15.00;57.20
7163;DHT22;3623;47.098;15.446;2023-04-06T14:06:27;14.70;57.80
7163;DHT22;3623;47.098;15.446;2023-04-06T14:08:54;14.30;57.20
7163;DHT22;3623;47.098;15.446;2023-04-06T14:11:22;13.80;58.20
7163;DHT22;3623;47.098;15.446;2023-04-06T14:13:49;13.90;58.30
7163;DHT22;3623;47.098;15.446;2023-04-06T14:16:16;13.90;57.70
7163;DHT22;3623;47.098;15.446;2023-04-06T14:18:45;14.40;59.00
7163;DHT22;3623;47.098;15.446;2023-04-06T14:21:12;15.50;56.80
7163;DHT22;3623;47.098;15.446;2023-04-06T14:23:41;16.00;56.80
7163;DHT22;3623;47.098;15.446;2023-04-06T14:26:08;16.20;56.00
7163;DHT22;3623;47.098;15.446;2023-04-06T14:28:37;16.10;55.50
7163;DHT22;3623;47.098;15.446;2023-04-06T14:31:10;16.70;57.70
7163;DHT22;3623;47.098;15.446;2023-04-06T14:33:37;16.90;59.80
7163;DHT22;3623;47.098;15.446;2023-04-06T14:36:05;16.70;59.00
7163;DHT22;3623;47.098;15.446;2023-04-06T14:38:33;17.50;57.90
7163;DHT22;3623;47.098;15.446;2023-04-06T14:41:02;18.20;58.40
7163;DHT22;3623;47.098;15.446;2023-04-06T14:43:29;17.40;57.40
7163;DHT22;3623;47.098;15.446;2023-04-06T14:46:00;16.80;58.50
7163;DHT22;3623;47.098;15.446;2023-04-06T14:48:27;16.50;59.90
7163;DHT22;3623;47.098;15.446;2023-04-06T14:50:55;16.80;58.90
7163;DHT22;3623;47.098;15.446;2023-04-06T14:53:22;16.50;58.70
7163;DHT22;3623;47.098;15.446;2023-04-06T14:55:50;15.60;58.90
7163;DHT22;3623;47.098;15.446;2023-04-06T14:58:19;15.20;59.30
7163;DHT22;3623;47.098;15.446;2023-04-06T15:00:46;15.70;61.10
7163;DHT22;3623;47.098;15.446;2023-04-06T15:03:13;15.50;59.70
7163;DHT22;3623;47.098;15.446;2023-04-06T15:05:41;15.00;59.90
7163;DHT22;3623;47.098;15.446;2023-04-06T15:08:08;14.80;59.60
7163;DHT22;3623;47.098;15.446;2023-04-06T15:10:35;15.10;58.20
7163;DHT22;3623;47.098;15.446;2023-04-06T15:13:03;16.00;58.50
7163;DHT22;3623;47.098;15.446;2023-04-06T15:15:31;16.50;56.90
7163;DHT22;3623;47.098;15.446;2023-04-06T15:17:58;16.50;56.40
7163;DHT22;3623;47.098;15.446;2023-04-06T15:20:27;16.70;56.00
7163;DHT22;3623;47.098;15.446;2023-04-06T15:22:54;17.00;57.20
7163;DHT22;3623;47.098;15.446;2023-04-06T15:25:21;17.20;57.80
7163;DHT22;3623;47.098;15.446;2023-04-06T15:27:49;16.70;56.40
7163;DHT22;3623;47.098;15.446;2023-04-06T15:30:16;16.60;57.90
7163;DHT22;3623;47.098;15.446;2023-04-06T15:32:52;16.60;57.40
7163;DHT22;3623;47.098;15.446;2023-04-06T15:35:19;15.90;57.30
7163;DHT22;3623;47.098;15.446;2023-04-06T15:37:47;15.80;57.30
7163;DHT22;3623;47.098;15.446;2023-04-06T15:40:14;15.00;56.50
7163;DHT22;3623;47.098;15.446;2023-04-06T15:42:41;14.70;56.80
7163;DHT22;3623;47.098;15.446;2023-04-06T15:45:09;14.40;57.80
7163;DHT22;3623;47.098;15.446;2023-04-06T15:47:37;14.20;58.60
7163;DHT22;3623;47.098;15.446;2023-04-06T15:50:06;14.20;58.70
7163;DHT22;3623;47.098;15.446;2023-04-06T15:52:34;14.10;57.70
7163;DHT22;3623;47.098;15.446;2023-04-06T15:55:02;13.70;57.20
7163;DHT22;3623;47.098;15.446;2023-04-06T15:57:29;13.30;58.50
7163;DHT22;3623;47.098;15.446;2023-04-06T15:59:56;13.30;59.60
7163;DHT22;3623;47.098;15.446;2023-04-06T16:02:24;13.30;59.40
7163;DHT22;3623;47.098;15.446;2023-04-06T16:04:54;13.10;60.70
7163;DHT22;3623;47.098;15.446;2023-04-06T16:07:23;12.90;61.00
7163;DHT22;3623;47.098;15.446;2023-04-06T16:09:50;12.80;62.60
7163;DHT22;3623;47.098;15.446;2023-04-06T16:12:18;12.40;63.50
7163;DHT22;3623;47.098;15.446;2023-04-06T16:14:45;12.30;66.60
7163;DHT22;3623;47.098;15.446;2023-04-06T16:17:12;12.10;64.10
7163;DHT22;3623;47.098;15.446;2023-04-06T16:19:39;12.10;64.90
7163;DHT22;3623;47.098;15.446;2023-04-06T16:22:06;12.10;69.10
7163;DHT22;3623;47.098;15.446;2023-04-06T16:24:36;12.00;68.40
7163;DHT22;3623;47.098;15.446;2023-04-06T16:27:03;11.80;67.20
7163;DHT22;3623;47.098;15.446;2023-04-06T16:29:31;11.70;66.90
7163;DHT22;3623;47.098;15.446;2023-04-06T16:32:00;11.70;66.70
7163;DHT22;3623;47.098;15.446;2023-04-06T16:34:30;11.60;65.70
7163;DHT22;3623;47.098;15.446;2023-04-06T16:36:57;11.80;67.00
7163;DHT22;3623;47.098;15.446;2023-04-06T16:39:24;11.60;68.50
7163;DHT22;3623;47.098;15.446;2023-04-06T16:41:53;11.20;67.30
7163;DHT22;3623;47.098;15.446;2023-04-06T16:44:20;11.00;66.80
7163;DHT22;3623;47.098;15.446;2023-04-06T16:46:48;10.90;67.40
7163;DHT22;3623;47.098;15.446;2023-04-06T16:49:15;10.80;68.80
7163;DHT22;3623;47.098;15.446;2023-04-06T16:51:44;10.30;65.70
7163;DHT22;3623;47.098;15.446;2023-04-06T16:54:11;10.50;66.60
7163;DHT22;3623;47.098;15.446;2023-04-06T16:56:38;10.50;65.00
7163;DHT22;3623;47.098;15.446;2023-04-06T16:59:07;10.30;66.50
7163;DHT22;3623;47.098;15.446;2023-04-06T17:01:34;10.20;68.90
7163;DHT22;3623;47.098;15.446;2023-04-06T19:42:26;6.10;95.10
7163;DHT22;3623;47.098;15.446;2023-04-06T19:52:16;6.30;95.10
7163;DHT22;3623;47.098;15.446;2023-04-06T19:54:44;6.20;95.00
7163;DHT22;3623;47.098;15.446;2023-04-06T20:19:20;5.90;95.60
7163;DHT22;3623;47.098;15.446;2023-04-06T20:31:39;5.50;96.10
